Time,TemperatureF,DewpointF,PressureIn,WindDirection,WindDirectionDegrees,WindSpeedMPH,WindSpeedGustMPH,Humidity,HourlyPrecipIn,Conditions,Clouds,dailyrainin,SoftwareType,DateUTC
2013-06-25 00:02:00,77.0,74.0,30.17,SSW,201,0.0,1.0,90,0.00,,,0.00,,2013-06-25 04:02:00,
2013-06-25 00:11:00,77.0,74.0,30.17,SSW,201,0.0,0.0,90,0.00,,,0.00,,2013-06-25 04:11:00,
2013-06-25 00:22:00,77.0,74.0,30.17,SSW,201,0.0,0.0,90,0.00,,,0.00,,2013-06-25 04:22:00,
2013-06-25 00:34:00,77.0,74.0,30.17,SSW,201,0.0,0.0,90,0.00,,,0.00,,2013-06-25 04:34:00,
2013-06-25 00:43:00,76.0,73.0,30.16,SSW,201,0.0,0.0,91,0.00,,,0.00,,2013-06-25 04:43:00,
2013-06-25 00:52:00,76.0,73.0,30.16,SSW,201,0.0,0.0,91,0.00,,,0.00,,2013-06-25 04:52:00,
2013-06-25 01:01:00,76.0,74.0,30.15,SSW,201,0.0,0.0,92,0.00,,,0.00,,2013-06-25 05:01:00,
2013-06-25 01:32:00,76.0,74.0,30.12,East,85,1.0,3.0,93,0.00,,,0.00,,2013-06-25 05:32:00,
2013-06-25 01:44:00,76.0,74.0,30.12,ESE,105,0.0,2.0,93,0.00,,,0.00,,2013-06-25 05:44:00,
2013-06-25 01:52:00,76.0,74.0,30.12,ESE,105,0.0,2.0,93,0.00,,,0.00,,2013-06-25 05:52:00,
2013-06-25 02:01:00,76.0,74.0,30.13,SE,128,0.0,1.0,93,0.00,,,0.00,,2013-06-25 06:01:00,
2013-06-25 02:11:00,76.0,74.0,30.13,SE,129,0.0,0.0,94,0.00,,,0.00,,2013-06-25 06:11:00,
2013-06-25 02:22:00,76.0,74.0,30.13,SE,129,0.0,0.0,94,0.00,,,0.00,,2013-06-25 06:22:00,
2013-06-25 02:33:00,76.0,74.0,30.13,SW,217,0.0,2.0,95,0.00,,,0.00,,2013-06-25 06:33:00,
2013-06-25 02:43:00,75.0,73.0,30.12,WNW,291,0.0,1.0,95,0.00,,,0.00,,2013-06-25 06:43:00,
2013-06-25 02:52:00,75.0,73.0,30.11,SSW,211,0.0,0.0,95,0.00,,,0.00,,2013-06-25 06:52:00,
2013-06-25 03:02:00,75.0,73.0,30.11,SSW,211,0.0,0.0,95,0.00,,,0.00,,2013-06-25 07:02:00,
2013-06-25 03:11:00,75.0,74.0,30.11,SSW,211,0.0,0.0,96,0.00,,,0.00,,2013-06-25 07:11:00,
2013-06-25 03:33:00,75.0,74.0,30.11,SW,231,0.0,0.0,96,0.00,,,0.00,,2013-06-25 07:33:00,
2013-06-25 03:43:00,75.0,74.0,30.10,SW,219,0.0,0.0,96,0.00,,,0.00,,2013-06-25 07:43:00,
2013-06-25 03:52:00,75.0,74.0,30.10,SW,219,0.0,0.0,96,0.00,,,0.00,,2013-06-25 07:52:00,
2013-06-25 04:02:00,75.0,74.0,30.10,SW,224,0.0,0.0,97,0.00,,,0.00,,2013-06-25 08:02:00,
2013-06-25 04:11:00,74.0,73.0,30.10,SSW,205,0.0,0.0,97,0.00,,,0.00,,2013-06-25 08:11:00,
2013-06-25 04:21:00,74.0,73.0,30.10,SSW,205,0.0,0.0,97,0.00,,,0.00,,2013-06-25 08:21:00,
2013-06-25 04:34:00,74.0,73.0,30.10,SW,231,0.0,0.0,97,0.00,,,0.00,,2013-06-25 08:34:00,
2013-06-25 04:43:00,74.0,73.0,30.09,SW,231,0.0,0.0,97,0.00,,,0.00,,2013-06-25 08:43:00,
2013-06-25 04:53:00,74.0,73.0,30.09,SW,231,0.0,0.0,97,0.00,,,0.00,,2013-06-25 08:53:00,
2013-06-25 05:02:00,74.0,73.0,30.10,SW,231,0.0,0.0,97,0.00,,,0.00,,2013-06-25 09:02:00,
2013-06-25 05:22:00,73.0,72.0,30.10,SW,231,0.0,0.0,98,0.00,,,0.00,,2013-06-25 09:22:00,
2013-06-25 05:33:00,73.0,72.0,30.11,SW,231,0.0,0.0,98,0.00,,,0.00,,2013-06-25 09:33:00,
2013-06-25 05:43:00,73.0,72.0,30.11,SW,231,0.0,0.0,98,0.00,,,0.00,,2013-06-25 09:43:00,
2013-06-25 06:01:00,72.0,71.0,30.11,SW,231,0.0,0.0,98,0.00,,,0.00,,2013-06-25 10:01:00,
2013-06-25 06:21:00,72.0,71.0,30.11,SW,231,0.0,0.0,98,0.00,,,0.00,,2013-06-25 10:21:00,
2013-06-25 06:33:00,73.0,73.0,30.12,SW,231,0.0,0.0,99,0.00,,,0.00,,2013-06-25 10:33:00,
2013-06-25 06:42:00,72.0,71.0,30.12,SW,231,0.0,0.0,98,0.00,,,0.00,,2013-06-25 10:42:00,
2013-06-25 06:52:00,72.0,71.0,30.12,SW,231,0.0,0.0,98,0.00,,,0.00,,2013-06-25 10:52:00,
2013-06-25 07:02:00,72.0,72.0,30.12,SW,231,0.0,0.0,99,0.00,,,0.00,,2013-06-25 11:02:00,
2013-06-25 07:22:00,72.0,72.0,30.13,SW,231,0.0,0.0,99,0.00,,,0.00,,2013-06-25 11:22:00,
2013-06-25 07:34:00,72.0,72.0,30.13,SW,231,0.0,0.0,99,0.00,,,0.00,,2013-06-25 11:34:00,
2013-06-25 08:02:00,76.0,76.0,30.14,SW,229,0.0,0.0,99,0.00,,,0.00,,2013-06-25 12:02:00,
2013-06-25 08:11:00,78.0,77.0,30.15,SW,228,0.0,0.0,96,0.00,,,0.00,,2013-06-25 12:11:00,
2013-06-25 08:33:00,79.0,75.0,30.15,SW,233,0.0,0.0,89,0.00,,,0.00,,2013-06-25 12:33:00,
2013-06-25 09:22:00,81.0,76.0,30.15,WNW,285,0.0,3.0,85,0.00,,,0.00,,2013-06-25 13:22:00,
2013-06-25 09:34:00,82.0,76.0,30.15,SW,225,2.0,5.0,81,0.00,,,0.00,,2013-06-25 13:34:00,
2013-06-25 10:02:00,83.0,75.0,30.15,SSW,205,2.0,5.0,78,0.00,,,0.00,,2013-06-25 14:02:00,
2013-06-25 10:11:00,83.0,75.0,30.15,SSW,211,1.0,5.0,77,0.00,,,0.00,,2013-06-25 14:11:00,
2013-06-25 10:34:00,84.0,75.0,30.15,WSW,240,1.0,5.0,74,0.00,,,0.00,,2013-06-25 14:34:00,
2013-06-25 10:43:00,85.0,75.0,30.15,SW,235,2.0,6.0,73,0.00,,,0.00,,2013-06-25 14:43:00,
2013-06-25 11:02:00,86.0,75.0,30.15,SW,219,0.0,5.0,70,0.00,,,0.00,,2013-06-25 15:02:00,
2013-06-25 11:11:00,86.0,75.0,30.15,SW,214,2.0,5.0,69,0.00,,,0.00,,2013-06-25 15:11:00,
2013-06-25 11:32:00,86.0,74.0,30.15,SSW,195,0.0,4.0,67,0.00,,,0.00,,2013-06-25 15:32:00,
2013-06-25 11:44:00,87.0,74.0,30.15,SSW,198,1.0,5.0,65,0.00,,,0.00,,2013-06-25 15:44:00,
2013-06-25 12:03:00,88.0,74.0,30.15,SW,228,1.0,4.0,64,0.00,,,0.00,,2013-06-25 16:03:00,
2013-06-25 12:23:00,87.0,73.0,30.14,WSW,256,0.0,4.0,63,0.00,,,0.00,,2013-06-25 16:23:00,
2013-06-25 12:35:00,89.0,74.0,30.14,SW,217,1.0,5.0,62,0.00,,,0.00,,2013-06-25 16:35:00,
2013-06-25 13:01:00,90.0,72.0,30.13,NNW,341,1.0,4.0,55,0.00,,,0.00,,2013-06-25 17:01:00,
2013-06-25 13:22:00,91.0,72.0,30.13,WNW,295,0.0,4.0,54,0.00,,,0.00,,2013-06-25 17:22:00,
2013-06-25 13:33:00,92.0,73.0,30.12,WNW,288,1.0,5.0,55,0.00,,,0.00,,2013-06-25 17:33:00,
2013-06-25 13:44:00,90.0,73.0,30.11,ENE,77,1.0,5.0,58,0.00,,,0.00,,2013-06-25 17:44:00,
2013-06-25 13:53:00,90.0,73.0,30.11,ENE,77,1.0,5.0,58,0.00,,,0.00,,2013-06-25 17:53:00,
2013-06-25 14:02:00,92.0,73.0,30.11,South,186,1.0,4.0,55,0.00,,,0.00,,2013-06-25 18:02:00,
2013-06-25 14:23:00,90.0,74.0,30.10,NNW,348,2.0,6.0,59,0.00,,,0.00,,2013-06-25 18:23:00,
2013-06-25 14:34:00,92.0,75.0,30.10,NE,49,1.0,5.0,57,0.00,,,0.00,,2013-06-25 18:34:00,
2013-06-25 15:01:00,93.0,72.0,30.09,WSW,248,2.0,4.0,50,0.00,,,0.00,,2013-06-25 19:01:00,
2013-06-25 15:22:00,93.0,68.0,30.09,East,82,2.0,5.0,45,0.00,,,0.00,,2013-06-25 19:22:00,
2013-06-25 15:33:00,93.0,68.0,30.08,ENE,63,1.0,5.0,44,0.00,,,0.00,,2013-06-25 19:33:00,
2013-06-25 15:44:00,93.0,70.0,30.08,NNW,342,1.0,5.0,47,0.00,,,0.00,,2013-06-25 19:44:00,
2013-06-25 15:53:00,93.0,70.0,30.08,NNW,342,1.0,5.0,47,0.00,,,0.00,,2013-06-25 19:53:00,
2013-06-25 16:02:00,94.0,69.0,30.06,WSW,246,0.0,4.0,45,0.00,,,0.00,,2013-06-25 20:02:00,
2013-06-25 16:22:00,94.0,71.0,30.06,SW,221,1.0,5.0,48,0.00,,,0.00,,2013-06-25 20:22:00,
2013-06-25 16:33:00,94.0,71.0,30.06,South,170,0.0,4.0,47,0.00,,,0.00,,2013-06-25 20:33:00,
2013-06-25 17:01:00,92.0,75.0,30.06,ESE,111,2.0,5.0,57,0.00,,,0.00,,2013-06-25 21:01:00,
2013-06-25 17:22:00,90.0,75.0,30.06,ENE,72,2.0,5.0,61,0.00,,,0.00,,2013-06-25 21:22:00,
2013-06-25 17:34:00,89.0,74.0,30.06,ESE,110,2.0,7.0,62,0.00,,,0.00,,2013-06-25 21:34:00,
2013-06-25 17:43:00,88.0,74.0,30.05,East,99,2.0,5.0,63,0.00,,,0.00,,2013-06-25 21:43:00,
2013-06-25 17:53:00,88.0,74.0,30.05,East,99,2.0,5.0,63,0.00,,,0.00,,2013-06-25 21:53:00,
2013-06-25 18:01:00,88.0,74.0,30.03,SE,134,2.0,6.0,63,0.00,,,0.00,,2013-06-25 22:01:00,
2013-06-25 18:11:00,87.0,74.0,30.03,ENE,70,1.0,6.0,65,0.00,,,0.00,,2013-06-25 22:11:00,
2013-06-25 18:34:00,87.0,74.0,30.05,East,79,1.0,5.0,66,0.00,,,0.00,,2013-06-25 22:34:00,
2013-06-25 18:42:00,86.0,73.0,30.06,SSE,153,0.0,5.0,66,0.00,,,0.00,,2013-06-25 22:42:00,
2013-06-25 19:01:00,86.0,73.0,30.06,East,99,1.0,7.0,65,0.00,,,0.00,,2013-06-25 23:01:00,
2013-06-25 19:11:00,85.0,72.0,30.06,ENE,75,1.0,6.0,66,0.00,,,0.00,,2013-06-25 23:11:00,
2013-06-25 19:34:00,84.0,72.0,30.06,NNW,342,1.0,4.0,67,0.00,,,0.00,,2013-06-25 23:34:00,
2013-06-25 19:44:00,84.0,73.0,30.08,NW,316,3.0,7.0,69,0.00,,,0.00,,2013-06-25 23:44:00,
2013-06-25 19:52:00,82.0,73.0,30.08,North,4,2.0,6.0,74,0.00,,,0.00,,2013-06-25 23:52:00,
2013-06-25 20:02:00,82.0,73.0,30.08,North,4,2.0,6.0,74,0.00,,,0.00,,2013-06-26 00:02:00,
2013-06-25 20:11:00,81.0,72.0,30.08,ENE,73,1.0,4.0,75,0.00,,,0.00,,2013-06-26 00:11:00,
2013-06-25 20:22:00,79.0,73.0,30.07,North,5,1.0,3.0,83,0.01,,,0.01,,2013-06-26 00:22:00,
2013-06-25 20:33:00,79.0,73.0,30.07,North,5,1.0,3.0,83,0.01,,,0.01,,2013-06-26 00:33:00,
2013-06-25 20:42:00,77.0,74.0,30.08,NNE,30,1.0,3.0,89,0.01,,,0.01,,2013-06-26 00:42:00,
2013-06-25 20:52:00,76.0,73.0,30.07,WNW,295,0.0,2.0,91,0.01,,,0.01,,2013-06-26 00:52:00,
2013-06-25 21:01:00,76.0,73.0,30.07,WNW,295,0.0,2.0,91,0.01,,,0.01,,2013-06-26 01:01:00,
2013-06-25 21:11:00,76.0,73.0,30.07,NE,43,0.0,1.0,91,0.01,,,0.01,,2013-06-26 01:11:00,
2013-06-25 21:22:00,75.0,73.0,30.07,ENE,72,0.0,2.0,92,0.00,,,0.01,,2013-06-26 01:22:00,
2013-06-25 21:33:00,75.0,73.0,30.07,ENE,72,0.0,2.0,92,0.00,,,0.01,,2013-06-26 01:33:00,
2013-06-25 21:43:00,75.0,73.0,30.07,ENE,70,0.0,1.0,93,0.00,,,0.01,,2013-06-26 01:43:00,
2013-06-25 22:02:00,75.0,73.0,30.08,ENE,70,0.0,1.0,93,0.00,,,0.01,,2013-06-26 02:02:00,
2013-06-25 22:22:00,76.0,74.0,30.08,SW,232,0.0,1.0,93,0.00,,,0.01,,2013-06-26 02:22:00,
2013-06-25 22:34:00,77.0,74.0,30.08,SE,144,1.0,3.0,91,0.00,,,0.01,,2013-06-26 02:34:00,
2013-06-25 22:43:00,77.0,74.0,30.10,South,176,0.0,1.0,90,0.00,,,0.01,,2013-06-26 02:43:00,
2013-06-25 23:02:00,78.0,75.0,30.10,East,91,0.0,2.0,90,0.00,,,0.01,,2013-06-26 03:02:00,
2013-06-25 23:22:00,78.0,75.0,30.09,SSW,210,0.0,2.0,90,0.00,,,0.01,,2013-06-26 03:22:00,
2013-06-25 23:33:00,77.0,74.0,30.09,East,83,0.0,1.0,90,0.00,,,0.01,,2013-06-26 03:33:00,
2013-06-25 23:43:00,77.0,74.0,30.09,East,86,0.0,0.0,91,0.00,,,0.01,,2013-06-26 03:43:00,
2013-06-25 23:52:00,77.0,74.0,30.09,East,86,0.0,0.0,91,0.00,,,0.01,,2013-06-26 03:52:00,